sensor_id;sensor_type;location;lat;lon;timestamp;pressure;altitude;pressure_sealevel;temperature;humidity
21988;BME280;11158;53.404;-1.510;2022-11-20T00:01:12;99905.81;;;11.37;61.75
21988;BME280;11158;53.404;-1.510;2022-11-20T00:03:40;99900.78;;;11.14;61.74
21988;BME280;11158;53.404;-1.510;2022-11-20T00:06:09;99890.13;;;10.73;63.01
21988;BME280;11158;53.404;-1.510;2022-11-20T00:08:36;99887.13;;;10.54;63.58
21988;BME280;11158;53.404;-1.510;2022-11-20T00:11:06;99890.97;;;11.28;62.02
21988;BME280;11158;53.404;-1.510;2022-11-20T00:13:33;99882.97;;;11.41;61.03
21988;BME280;11158;53.404;-1.510;2022-11-20T00:16:00;99879.09;;;11.64;60.57
21988;BME280;11158;53.404;-1.510;2022-11-20T00:18:27;99873.38;;;12.13;59.29
21988;BME280;11158;53.404;-1.510;2022-11-20T00:20:53;99875.38;;;11.58;59.92
21988;BME280;11158;53.404;-1.510;2022-11-20T00:23:21;99874.34;;;11.52;59.88
21988;BME280;11158;53.404;-1.510;2022-11-20T00:25:47;99871.69;;;11.52;60.43
21988;BME280;11158;53.404;-1.510;2022-11-20T00:28:13;99876.19;;;11.59;60.26
21988;BME280;11158;53.404;-1.510;2022-11-20T00:30:38;99863.41;;;11.54;60.78
21988;BME280;11158;53.404;-1.510;2022-11-20T00:33:04;99856.38;;;11.26;60.57
21988;BME280;11158;53.404;-1.510;2022-11-20T00:35:30;99857.78;;;11.22;61.60
21988;BME280;11158;53.404;-1.510;2022-11-20T00:37:55;99846.69;;;11.25;61.10
21988;BME280;11158;53.404;-1.510;2022-11-20T00:40:21;99842.16;;;11.26;61.32
21988;BME280;11158;53.404;-1.510;2022-11-20T00:42:47;99836.41;;;11.29;60.93
21988;BME280;11158;53.404;-1.510;2022-11-20T00:45:14;99838.53;;;11.60;60.28
21988;BME280;11158;53.404;-1.510;2022-11-20T00:47:39;99830.69;;;11.52;59.91
21988;BME280;11158;53.404;-1.510;2022-11-20T00:50:06;99825.59;;;11.90;58.95
21988;BME280;11158;53.404;-1.510;2022-11-20T00:52:31;99828.06;;;12.05;59.11
21988;BME280;11158;53.404;-1.510;2022-11-20T00:54:57;99823.28;;;11.74;59.12
21988;BME280;11158;53.404;-1.510;2022-11-20T00:57:23;99819.59;;;12.02;58.89
21988;BME280;11158;53.404;-1.510;2022-11-20T00:59:48;99814.44;;;12.07;58.67
21988;BME280;11158;53.404;-1.510;2022-11-20T01:02:14;99813.81;;;11.51;59.55
21988;BME280;11158;53.404;-1.510;2022-11-20T01:04:42;99804.94;;;11.31;60.73
21988;BME280;11158;53.404;-1.510;2022-11-20T01:07:08;99797.53;;;11.46;60.60
21988;BME280;11158;53.404;-1.510;2022-11-20T01:09:33;99800.22;;;11.60;60.14
21988;BME280;11158;53.404;-1.510;2022-11-20T01:11:59;99793.16;;;11.12;60.68
21988;BME280;11158;53.404;-1.510;2022-11-20T01:14:25;99786.94;;;10.92;61.40
21988;BME280;11158;53.404;-1.510;2022-11-20T01:16:51;99788.41;;;11.01;61.42
21988;BME280;11158;53.404;-1.510;2022-11-20T01:19:22;99789.09;;;11.23;60.41
21988;BME280;11158;53.404;-1.510;2022-11-20T01:21:51;99781.25;;;11.21;60.65
21988;BME280;11158;53.404;-1.510;2022-11-20T01:24:18;99773.25;;;11.28;60.37
21988;BME280;11158;53.404;-1.510;2022-11-20T01:26:48;99781.69;;;11.45;60.36
21988;BME280;11158;53.404;-1.510;2022-11-20T01:29:16;99778.38;;;11.49;60.19
21988;BME280;11158;53.404;-1.510;2022-11-20T01:31:43;99771.38;;;11.28;60.94
21988;BME280;11158;53.404;-1.510;2022-11-20T01:34:11;99769.31;;;11.17;60.79
21988;BME280;11158;53.404;-1.510;2022-11-20T01:36:38;99763.94;;;11.17;60.79
21988;BME280;11158;53.404;-1.510;2022-11-20T01:39:07;99758.16;;;11.00;61.50
21988;BME280;11158;53.404;-1.510;2022-11-20T01:41:33;99748.34;;;11.41;60.40
21988;BME280;11158;53.404;-1.510;2022-11-20T01:44:20;99745.88;;;11.39;60.48
21988;BME280;11158;53.404;-1.510;2022-11-20T01:47:00;99752.03;;;11.46;60.04
21988;BME280;11158;53.404;-1.510;2022-11-20T01:49:36;99745.25;;;11.30;59.38
21988;BME280;11158;53.404;-1.510;2022-11-20T01:52:05;99737.22;;;11.37;60.22
21988;BME280;11158;53.404;-1.510;2022-11-20T01:54:40;99730.63;;;11.60;59.92
21988;BME280;11158;53.404;-1.510;2022-11-20T01:57:10;99726.44;;;12.17;58.17
21988;BME280;11158;53.404;-1.510;2022-11-20T01:59:44;99722.38;;;11.94;58.09
21988;BME280;11158;53.404;-1.510;2022-11-20T02:02:16;99719.50;;;11.63;58.44
21988;BME280;11158;53.404;-1.510;2022-11-20T02:04:54;99716.63;;;11.71;59.46
21988;BME280;11158;53.404;-1.510;2022-11-20T02:07:22;99713.94;;;11.24;60.19
21988;BME280;11158;53.404;-1.510;2022-11-20T02:09:49;99716.19;;;10.94;61.16
21988;BME280;11158;53.404;-1.510;2022-11-20T02:12:29;99710.41;;;11.77;59.16
21988;BME280;11158;53.404;-1.510;2022-11-20T02:15:14;99710.66;;;11.29;59.82
21988;BME280;11158;53.404;-1.510;2022-11-20T02:17:40;99705.03;;;11.84;58.60
21988;BME280;11158;53.404;-1.510;2022-11-20T02:20:06;99702.84;;;11.14;59.99
21988;BME280;11158;53.404;-1.510;2022-11-20T02:22:39;99693.16;;;11.13;60.70
21988;BME280;11158;53.404;-1.510;2022-11-20T02:25:09;99689.88;;;11.24;60.36
21988;BME280;11158;53.404;-1.510;2022-11-20T02:27:36;99671.56;;;11.55;59.77
21988;BME280;11158;53.404;-1.510;2022-11-20T02:30:05;99674.44;;;11.13;60.69
21988;BME280;11158;53.404;-1.510;2022-11-20T02:32:35;99664.34;;;11.48;59.73
21988;BME280;11158;53.404;-1.510;2022-11-20T02:37:58;99658.63;;;11.11;60.32
21988;BME280;11158;53.404;-1.510;2022-11-20T02:40:25;99665.16;;;11.42;60.21
21988;BME280;11158;53.404;-1.510;2022-11-20T02:42:54;99650.97;;;11.42;59.46
21988;BME280;11158;53.404;-1.510;2022-11-20T02:45:21;99645.59;;;11.55;59.21
21988;BME280;11158;53.404;-1.510;2022-11-20T02:47:56;99648.72;;;11.19;59.94
21988;BME280;11158;53.404;-1.510;2022-11-20T02:50:21;99635.97;;;11.27;60.38
21988;BME280;11158;53.404;-1.510;2022-11-20T02:52:47;99637.59;;;11.08;60.09
21988;BME280;11158;53.404;-1.510;2022-11-20T02:55:12;99637.56;;;11.68;59.57
21988;BME280;11158;53.404;-1.510;2022-11-20T02:57:38;99627.84;;;11.67;58.69
21988;BME280;11158;53.404;-1.510;2022-11-20T03:00:04;99622.59;;;11.07;60.09
21988;BME280;11158;53.404;-1.510;2022-11-20T03:02:32;99610.03;;;11.35;59.78
21988;BME280;11158;53.404;-1.510;2022-11-20T03:04:58;99615.38;;;11.41;59.55
21988;BME280;11158;53.404;-1.510;2022-11-20T03:07:24;99605.13;;;11.18;59.98
21988;BME280;11158;53.404;-1.510;2022-11-20T03:09:49;99600.97;;;10.62;61.78
21988;BME280;11158;53.404;-1.510;2022-11-20T03:12:15;99605.13;;;10.98;61.13
21988;BME280;11158;53.404;-1.510;2022-11-20T03:14:41;99598.13;;;10.77;61.85
21988;BME280;11158;53.404;-1.510;2022-11-20T03:17:08;99591.72;;;10.65;61.95
21988;BME280;11158;53.404;-1.510;2022-11-20T03:19:36;99595.25;;;10.72;61.81
21988;BME280;11158;53.404;-1.510;2022-11-20T03:22:03;99593.75;;;10.30;62.94
21988;BME280;11158;53.404;-1.510;2022-11-20T03:24:29;99585.78;;;10.56;62.81
21988;BME280;11158;53.404;-1.510;2022-11-20T03:26:54;99576.53;;;10.52;62.82
21988;BME280;11158;53.404;-1.510;2022-11-20T03:29:20;99568.50;;;10.92;62.07
21988;BME280;11158;53.404;-1.510;2022-11-20T03:31:46;99570.78;;;10.82;62.36
21988;BME280;11158;53.404;-1.510;2022-11-20T03:34:12;99564.16;;;10.44;62.98
21988;BME280;11158;53.404;-1.510;2022-11-20T03:36:39;99555.78;;;10.54;62.59
21988;BME280;11158;53.404;-1.510;2022-11-20T03:39:05;99555.16;;;10.59;62.86
21988;BME280;11158;53.404;-1.510;2022-11-20T03:41:36;99538.03;;;10.26;63.11
21988;BME280;11158;53.404;-1.510;2022-11-20T03:44:04;99529.25;;;10.59;63.24
21988;BME280;11158;53.404;-1.510;2022-11-20T03:46:31;99527.59;;;10.92;62.31
21988;BME280;11158;53.404;-1.510;2022-11-20T03:48:57;99531.50;;;10.82;61.95
21988;BME280;11158;53.404;-1.510;2022-11-20T03:51:30;99528.94;;;9.94;64.44
21988;BME280;11158;53.404;-1.510;2022-11-20T03:53:58;99515.25;;;10.44;63.63
21988;BME280;11158;53.404;-1.510;2022-11-20T03:56:31;99507.66;;;10.41;63.58
21988;BME280;11158;53.404;-1.510;2022-11-20T03:58:57;99496.91;;;11.14;62.22
21988;BME280;11158;53.404;-1.510;2022-11-20T04:01:32;99500.56;;;11.20;61.06
21988;BME280;11158;53.404;-1.510;2022-11-20T04:03:58;99496.88;;;11.21;61.42
21988;BME280;11158;53.404;-1.510;2022-11-20T04:06:29;99494.06;;;10.89;62.05
21988;BME280;11158;53.404;-1.510;2022-11-20T04:08:57;99494.22;;;11.14;61.68
21988;BME280;11158;53.404;-1.510;2022-11-20T04:13:53;99489.44;;;11.29;61.36
21988;BME280;11158;53.404;-1.510;2022-11-20T04:16:20;99487.78;;;11.35;60.66
21988;BME280;11158;53.404;-1.510;2022-11-20T04:18:46;99484.19;;;10.83;62.05
21988;BME280;11158;53.404;-1.510;2022-11-20T04:21:12;99474.75;;;10.74;62.50
21988;BME280;11158;53.404;-1.510;2022-11-20T04:23:38;99472.06;;;10.74;62.41
21988;BME280;11158;53.404;-1.510;2022-11-20T04:26:07;99461.63;;;10.59;63.57
21988;BME280;11158;53.404;-1.510;2022-11-20T04:28:33;99464.50;;;10.64;63.25
21988;BME280;11158;53.404;-1.510;2022-11-20T04:33:28;99452.53;;;10.80;62.89
21988;BME280;11158;53.404;-1.510;2022-11-20T04:35:54;99453.19;;;10.42;64.23
21988;BME280;11158;53.404;-1.510;2022-11-20T04:38:20;99448.25;;;10.59;64.33
21988;BME280;11158;53.404;-1.510;2022-11-20T04:40:46;99450.13;;;10.58;64.20
21988;BME280;11158;53.404;-1.510;2022-11-20T04:43:11;99441.03;;;10.86;62.81
21988;BME280;11158;53.404;-1.510;2022-11-20T04:45:37;99443.06;;;10.90;62.98
21988;BME280;11158;53.404;-1.510;2022-11-20T04:48:03;99443.88;;;10.98;62.93
21988;BME280;11158;53.404;-1.510;2022-11-20T04:50:29;99442.28;;;10.63;63.66
21988;BME280;11158;53.404;-1.510;2022-11-20T04:52:54;99443.69;;;10.86;63.54
21988;BME280;11158;53.404;-1.510;2022-11-20T04:55:20;99443.53;;;10.67;63.65
21988;BME280;11158;53.404;-1.510;2022-11-20T04:57:49;99433.81;;;10.93;62.94
21988;BME280;11158;53.404;-1.510;2022-11-20T05:00:15;99432.69;;;11.14;62.36
21988;BME280;11158;53.404;-1.510;2022-11-20T05:02:41;99439.66;;;11.22;62.04
21988;BME280;11158;53.404;-1.510;2022-11-20T05:05:07;99441.59;;;10.95;62.57
21988;BME280;11158;53.404;-1.510;2022-11-20T05:07:33;99445.78;;;11.36;61.77
21988;BME280;11158;53.404;-1.510;2022-11-20T05:09:58;99443.16;;;11.67;61.01
21988;BME280;11158;53.404;-1.510;2022-11-20T05:12:24;99447.66;;;11.73;60.69
21988;BME280;11158;53.404;-1.510;2022-11-20T05:14:50;99447.13;;;11.97;59.75
21988;BME280;11158;53.404;-1.510;2022-11-20T05:17:15;99448.78;;;11.91;59.79
21988;BME280;11158;53.404;-1.510;2022-11-20T05:19:41;99440.63;;;12.11;59.44
21988;BME280;11158;53.404;-1.510;2022-11-20T05:22:07;99453.94;;;12.24;58.44
21988;BME280;11158;53.404;-1.510;2022-11-20T05:24:32;99444.72;;;11.82;58.99
21988;BME280;11158;53.404;-1.510;2022-11-20T05:26:58;99439.34;;;11.88;59.12
21988;BME280;11158;53.404;-1.510;2022-11-20T05:29:23;99437.06;;;11.85;59.68
21988;BME280;11158;53.404;-1.510;2022-11-20T05:31:49;99450.25;;;11.48;60.52
21988;BME280;11158;53.404;-1.510;2022-11-20T05:34:15;99441.63;;;11.85;59.93
21988;BME280;11158;53.404;-1.510;2022-11-20T05:36:40;99436.00;;;12.25;59.06
21988;BME280;11158;53.404;-1.510;2022-11-20T05:39:06;99436.34;;;12.35;58.41
21988;BME280;11158;53.404;-1.510;2022-11-20T05:41:32;99432.13;;;12.64;57.70
21988;BME280;11158;53.404;-1.510;2022-11-20T05:43:58;99425.75;;;12.65;57.53
21988;BME280;11158;53.404;-1.510;2022-11-20T05:46:24;99410.69;;;12.64;57.40
21988;BME280;11158;53.404;-1.510;2022-11-20T05:48:50;99413.59;;;12.19;58.96
21988;BME280;11158;53.404;-1.510;2022-11-20T05:51:17;99408.09;;;12.57;57.92
21988;BME280;11158;53.404;-1.510;2022-11-20T05:53:44;99403.41;;;12.53;57.81
21988;BME280;11158;53.404;-1.510;2022-11-20T05:56:15;99398.88;;;12.72;57.04
21988;BME280;11158;53.404;-1.510;2022-11-20T05:58:41;99406.25;;;12.76;57.02
21988;BME280;11158;53.404;-1.510;2022-11-20T06:01:08;99391.56;;;12.79;56.80
21988;BME280;11158;53.404;-1.510;2022-11-20T06:03:34;99381.50;;;12.93;56.88
21988;BME280;11158;53.404;-1.510;2022-11-20T06:06:00;99386.38;;;11.59;58.68
21988;BME280;11158;53.404;-1.510;2022-11-20T06:08:28;99371.59;;;12.13;59.05
21988;BME280;11158;53.404;-1.510;2022-11-20T06:10:54;99378.25;;;12.29;58.50
21988;BME280;11158;53.404;-1.510;2022-11-20T06:13:20;99378.81;;;12.56;57.47
21988;BME280;11158;53.404;-1.510;2022-11-20T06:15:50;99366.94;;;11.70;60.45
21988;BME280;11158;53.404;-1.510;2022-11-20T06:18:16;99377.16;;;11.55;60.22
21988;BME280;11158;53.404;-1.510;2022-11-20T06:20:42;99366.59;;;10.69;62.58
21988;BME280;11158;53.404;-1.510;2022-11-20T06:23:08;99369.66;;;11.63;60.91
21988;BME280;11158;53.404;-1.510;2022-11-20T06:25:40;99362.56;;;11.50;60.78
21988;BME280;11158;53.404;-1.510;2022-11-20T06:28:07;99367.84;;;10.67;63.09
21988;BME280;11158;53.404;-1.510;2022-11-20T06:30:34;99367.72;;;10.35;64.29
21988;BME280;11158;53.404;-1.510;2022-11-20T06:32:59;99367.28;;;10.58;63.78
21988;BME280;11158;53.404;-1.510;2022-11-20T06:35:25;99364.34;;;10.73;63.05
21988;BME280;11158;53.404;-1.510;2022-11-20T06:37:51;99366.44;;;10.51;63.93
21988;BME280;11158;53.404;-1.510;2022-11-20T06:40:16;99372.41;;;10.46;64.48
21988;BME280;11158;53.404;-1.510;2022-11-20T06:42:42;99369.97;;;10.18;65.42
21988;BME280;11158;53.404;-1.510;2022-11-20T06:45:08;99374.91;;;9.88;66.61
21988;BME280;11158;53.404;-1.510;2022-11-20T06:47:34;99382.31;;;10.19;66.56
21988;BME280;11158;53.404;-1.510;2022-11-20T06:50:00;99367.19;;;11.30;63.49
21988;BME280;11158;53.404;-1.510;2022-11-20T06:52:26;99361.53;;;11.77;61.67
21988;BME280;11158;53.404;-1.510;2022-11-20T06:54:51;99357.00;;;11.77;60.60
21988;BME280;11158;53.404;-1.510;2022-11-20T06:57:17;99359.00;;;11.57;60.96
21988;BME280;11158;53.404;-1.510;2022-11-20T06:59:43;99350.97;;;11.88;60.25
21988;BME280;11158;53.404;-1.510;2022-11-20T07:02:13;99361.63;;;12.20;59.46
21988;BME280;11158;53.404;-1.510;2022-11-20T07:04:39;99370.47;;;11.70;60.28
21988;BME280;11158;53.404;-1.510;2022-11-20T07:07:05;99369.91;;;12.19;59.32
21988;BME280;11158;53.404;-1.510;2022-11-20T07:09:32;99380.00;;;12.42;58.40
21988;BME280;11158;53.404;-1.510;2022-11-20T07:11:59;99370.09;;;12.42;57.94
21988;BME280;11158;53.404;-1.510;2022-11-20T07:14:24;99375.56;;;12.29;57.91
21988;BME280;11158;53.404;-1.510;2022-11-20T07:16:51;99373.88;;;11.84;59.15
21988;BME280;11158;53.404;-1.510;2022-11-20T07:19:17;99372.25;;;11.77;59.30
21988;BME280;11158;53.404;-1.510;2022-11-20T07:21:43;99378.16;;;10.63;62.15
21988;BME280;11158;53.404;-1.510;2022-11-20T07:24:09;99385.41;;;10.30;63.74
21988;BME280;11158;53.404;-1.510;2022-11-20T07:26:34;99391.50;;;10.77;62.44
21988;BME280;11158;53.404;-1.510;2022-11-20T07:29:00;99391.09;;;9.73;66.24
21988;BME280;11158;53.404;-1.510;2022-11-20T07:31:26;99392.34;;;9.91;66.42
21988;BME280;11158;53.404;-1.510;2022-11-20T07:33:52;99389.69;;;10.31;65.03
21988;BME280;11158;53.404;-1.510;2022-11-20T07:36:17;99394.41;;;9.95;66.96
21988;BME280;11158;53.404;-1.510;2022-11-20T07:38:43;99383.03;;;10.86;65.12
21988;BME280;11158;53.404;-1.510;2022-11-20T07:41:09;99393.16;;;11.61;62.21
21988;BME280;11158;53.404;-1.510;2022-11-20T07:43:35;99389.94;;;12.09;60.43
21988;BME280;11158;53.404;-1.510;2022-11-20T07:46:00;99380.75;;;12.49;59.22
21988;BME280;11158;53.404;-1.510;2022-11-20T07:48:26;99388.78;;;12.49;58.77
21988;BME280;11158;53.404;-1.510;2022-11-20T07:50:56;99399.84;;;12.34;58.72
21988;BME280;11158;53.404;-1.510;2022-11-20T07:53:23;99389.84;;;12.23;57.93
21988;BME280;11158;53.404;-1.510;2022-11-20T07:55:49;99401.88;;;11.82;59.59
21988;BME280;11158;53.404;-1.510;2022-11-20T07:58:18;99404.94;;;12.17;58.86
21988;BME280;11158;53.404;-1.510;2022-11-20T08:00:44;99416.06;;;12.39;58.16
21988;BME280;11158;53.404;-1.510;2022-11-20T08:03:10;99429.75;;;12.31;57.92
21988;BME280;11158;53.404;-1.510;2022-11-20T08:05:36;99430.63;;;12.50;58.09
21988;BME280;11158;53.404;-1.510;2022-11-20T08:08:02;99424.94;;;12.83;57.30
21988;BME280;11158;53.404;-1.510;2022-11-20T08:10:28;99432.75;;;12.85;56.67
21988;BME280;11158;53.404;-1.510;2022-11-20T08:12:54;99429.25;;;12.15;58.93
21988;BME280;11158;53.404;-1.510;2022-11-20T08:15:39;99424.78;;;12.09;58.89
21988;BME280;11158;53.404;-1.510;2022-11-20T08:18:10;99432.59;;;12.11;59.22
21988;BME280;11158;53.404;-1.510;2022-11-20T08:20:37;99441.28;;;12.56;58.14
21988;BME280;11158;53.404;-1.510;2022-11-20T08:23:05;99454.03;;;12.61;57.41
21988;BME280;11158;53.404;-1.510;2022-11-20T08:25:33;99447.72;;;12.74;57.31
21988;BME280;11158;53.404;-1.510;2022-11-20T08:28:00;99429.34;;;12.96;56.97
21988;BME280;11158;53.404;-1.510;2022-11-20T08:30:26;99432.94;;;13.08;56.86
21988;BME280;11158;53.404;-1.510;2022-11-20T08:32:52;99424.88;;;13.27;56.25
21988;BME280;11158;53.404;-1.510;2022-11-20T08:35:19;99431.25;;;13.44;56.01
21988;BME280;11158;53.404;-1.510;2022-11-20T08:37:48;99432.63;;;13.35;55.98
21988;BME280;11158;53.404;-1.510;2022-11-20T08:40:14;99436.94;;;13.17;56.36
21988;BME280;11158;53.404;-1.510;2022-11-20T08:42:50;99430.38;;;12.76;57.71
21988;BME280;11158;53.404;-1.510;2022-11-20T08:45:17;99436.88;;;13.24;56.46
21988;BME280;11158;53.404;-1.510;2022-11-20T08:47:44;99455.06;;;13.22;56.56
21988;BME280;11158;53.404;-1.510;2022-11-20T08:50:11;99455.00;;;13.29;56.21
21988;BME280;11158;53.404;-1.510;2022-11-20T08:52:37;99458.69;;;13.46;55.60
21988;BME280;11158;53.404;-1.510;2022-11-20T08:55:04;99451.88;;;13.62;55.48
21988;BME280;11158;53.404;-1.510;2022-11-20T08:57:35;99462.13;;;13.53;55.71
21988;BME280;11158;53.404;-1.510;2022-11-20T09:00:01;99462.69;;;13.74;54.95
21988;BME280;11158;53.404;-1.510;2022-11-20T09:02:28;99463.69;;;13.91;54.59
21988;BME280;11158;53.404;-1.510;2022-11-20T09:04:53;99458.75;;;13.21;56.63
21988;BME280;11158;53.404;-1.510;2022-11-20T09:07:19;99452.97;;;13.24;56.78
21988;BME280;11158;53.404;-1.510;2022-11-20T09:09:46;99456.19;;;13.33;56.61
21988;BME280;11158;53.404;-1.510;2022-11-20T09:12:12;99445.38;;;12.09;59.98
21988;BME280;11158;53.404;-1.510;2022-11-20T09:14:38;99456.88;;;12.41;59.43
21988;BME280;11158;53.404;-1.510;2022-11-20T09:17:03;99458.91;;;12.89;58.46
21988;BME280;11158;53.404;-1.510;2022-11-20T09:19:29;99461.16;;;12.92;58.24
21988;BME280;11158;53.404;-1.510;2022-11-20T09:21:54;99464.94;;;13.21;57.50
21988;BME280;11158;53.404;-1.510;2022-11-20T09:24:20;99461.69;;;13.19;56.43
21988;BME280;11158;53.404;-1.510;2022-11-20T09:26:46;99466.22;;;12.57;58.11
21988;BME280;11158;53.404;-1.510;2022-11-20T09:29:12;99469.81;;;12.51;58.75
21988;BME280;11158;53.404;-1.510;2022-11-20T09:31:38;99469.69;;;12.83;58.23
21988;BME280;11158;53.404;-1.510;2022-11-20T09:34:04;99465.63;;;12.30;59.02
21988;BME280;11158;53.404;-1.510;2022-11-20T09:36:30;99459.94;;;12.45;58.84
21988;BME280;11158;53.404;-1.510;2022-11-20T09:38:55;99473.56;;;12.68;57.98
21988;BME280;11158;53.404;-1.510;2022-11-20T09:47:01;99470.66;;;13.32;56.45
21988;BME280;11158;53.404;-1.510;2022-11-20T09:55:20;99467.06;;;13.56;55.44
21988;BME280;11158;53.404;-1.510;2022-11-20T09:57:48;99455.56;;;13.31;55.76
21988;BME280;11158;53.404;-1.510;2022-11-20T10:00:17;99457.03;;;13.33;56.23
21988;BME280;11158;53.404;-1.510;2022-11-20T10:05:31;99458.53;;;13.59;55.58
21988;BME280;11158;53.404;-1.510;2022-11-20T10:10:45;99444.50;;;13.57;55.46
21988;BME280;11158;53.404;-1.510;2022-11-20T10:13:17;99450.56;;;12.97;56.92
21988;BME280;11158;53.404;-1.510;2022-11-20T10:25:11;99454.66;;;12.82;57.49
21988;BME280;11158;53.404;-1.510;2022-11-20T10:30:20;99458.91;;;12.46;57.55
21988;BME280;11158;53.404;-1.510;2022-11-20T10:32:52;99460.09;;;12.75;56.87
21988;BME280;11158;53.404;-1.510;2022-11-20T10:37:58;99457.13;;;12.40;57.36
21988;BME280;11158;53.404;-1.510;2022-11-20T10:40:29;99453.78;;;12.88;56.73
21988;BME280;11158;53.404;-1.510;2022-11-20T10:43:00;99458.13;;;12.13;58.12
21988;BME280;11158;53.404;-1.510;2022-11-20T10:48:16;99451.69;;;12.46;56.86
21988;BME280;11158;53.404;-1.510;2022-11-20T10:50:57;99454.78;;;12.68;56.75
21988;BME280;11158;53.404;-1.510;2022-11-20T10:53:45;99452.44;;;12.97;56.55
21988;BME280;11158;53.404;-1.510;2022-11-20T10:56:21;99450.78;;;12.96;55.36
21988;BME280;11158;53.404;-1.510;2022-11-20T11:01:42;99451.91;;;12.88;55.50
21988;BME280;11158;53.404;-1.510;2022-11-20T11:06:58;99444.09;;;13.05;55.00
21988;BME280;11158;53.404;-1.510;2022-11-20T11:09:34;99444.00;;;12.75;55.17
21988;BME280;11158;53.404;-1.510;2022-11-20T11:12:01;99436.47;;;12.65;56.00
21988;BME280;11158;53.404;-1.510;2022-11-20T11:14:27;99441.13;;;12.51;56.25
21988;BME280;11158;53.404;-1.510;2022-11-20T11:16:55;99443.94;;;12.38;56.09
21988;BME280;11158;53.404;-1.510;2022-11-20T11:19:22;99437.44;;;12.71;55.52
21988;BME280;11158;53.404;-1.510;2022-11-20T11:21:52;99431.09;;;12.65;54.91
21988;BME280;11158;53.404;-1.510;2022-11-20T11:24:24;99428.22;;;11.85;56.64
21988;BME280;11158;53.404;-1.510;2022-11-20T11:27:10;99428.09;;;12.05;57.21
21988;BME280;11158;53.404;-1.510;2022-11-20T11:29:37;99423.69;;;12.17;57.10
21988;BME280;11158;53.404;-1.510;2022-11-20T11:32:20;99422.91;;;11.78;58.13
21988;BME280;11158;53.404;-1.510;2022-11-20T11:35:07;99424.59;;;12.04;57.88
21988;BME280;11158;53.404;-1.510;2022-11-20T11:37:45;99430.19;;;12.03;56.51
21988;BME280;11158;53.404;-1.510;2022-11-20T11:40:13;99427.72;;;12.51;55.99
21988;BME280;11158;53.404;-1.510;2022-11-20T11:42:43;99416.78;;;11.71;56.95
21988;BME280;11158;53.404;-1.510;2022-11-20T11:45:15;99428.97;;;11.22;58.24
21988;BME280;11158;53.404;-1.510;2022-11-20T11:47:44;99418.69;;;11.95;56.81
21988;BME280;11158;53.404;-1.510;2022-11-20T11:50:29;99412.44;;;12.08;55.79
21988;BME280;11158;53.404;-1.510;2022-11-20T11:58:20;99406.03;;;11.78;55.53
21988;BME280;11158;53.404;-1.510;2022-11-20T12:01:07;99404.28;;;11.97;55.52
21988;BME280;11158;53.404;-1.510;2022-11-20T12:03:38;99400.91;;;12.08;54.97
21988;BME280;11158;53.404;-1.510;2022-11-20T12:06:23;99398.56;;;12.36;54.29
21988;BME280;11158;53.404;-1.510;2022-11-20T12:08:55;99401.69;;;12.58;53.62
21988;BME280;11158;53.404;-1.510;2022-11-20T12:14:22;99394.91;;;12.74;53.56
21988;BME280;11158;53.404;-1.510;2022-11-20T12:16:53;99404.44;;;12.52;53.38
21988;BME280;11158;53.404;-1.510;2022-11-20T12:19:21;99398.53;;;12.18;54.28
21988;BME280;11158;53.404;-1.510;2022-11-20T12:43:11;99399.81;;;12.77;52.78
21988;BME280;11158;53.404;-1.510;2022-11-20T12:51:34;99401.00;;;13.37;51.47
21988;BME280;11158;53.404;-1.510;2022-11-20T13:00:10;99408.59;;;13.21;52.11
21988;BME280;11158;53.404;-1.510;2022-11-20T13:08:32;99405.31;;;14.10;49.31
21988;BME280;11158;53.404;-1.510;2022-11-20T13:16:36;99407.66;;;13.16;52.31
21988;BME280;11158;53.404;-1.510;2022-11-20T13:19:04;99411.28;;;12.85;52.67
21988;BME280;11158;53.404;-1.510;2022-11-20T13:21:43;99409.13;;;13.12;52.38
21988;BME280;11158;53.404;-1.510;2022-11-20T13:29:46;99406.19;;;13.50;51.24
21988;BME280;11158;53.404;-1.510;2022-11-20T13:32:16;99406.72;;;13.59;51.51
21988;BME280;11158;53.404;-1.510;2022-11-20T13:34:57;99402.81;;;13.97;49.33
21988;BME280;11158;53.404;-1.510;2022-11-20T13:37:35;99406.00;;;13.94;49.54
21988;BME280;11158;53.404;-1.510;2022-11-20T13:43:08;99402.94;;;15.20;47.66
21988;BME280;11158;53.404;-1.510;2022-11-20T13:45:28;99406.28;;;14.39;47.84
21988;BME280;11158;53.404;-1.510;2022-11-20T13:47:55;99413.41;;;13.19;50.57
21988;BME280;11158;53.404;-1.510;2022-11-20T13:53:07;99418.84;;;13.31;50.78
21988;BME280;11158;53.404;-1.510;2022-11-20T13:55:54;99416.66;;;13.03;51.42
21988;BME280;11158;53.404;-1.510;2022-11-20T14:01:06;99417.56;;;12.97;51.18
21988;BME280;11158;53.404;-1.510;2022-11-20T14:03:34;99417.91;;;13.37;50.63
21988;BME280;11158;53.404;-1.510;2022-11-20T14:06:05;99413.22;;;12.59;51.65
21988;BME280;11158;53.404;-1.510;2022-11-20T14:08:48;99418.53;;;12.84;51.63
21988;BME280;11158;53.404;-1.510;2022-11-20T14:16:29;99424.34;;;13.36;51.18
21988;BME280;11158;53.404;-1.510;2022-11-20T14:18:55;99425.22;;;13.49;50.63
21988;BME280;11158;53.404;-1.510;2022-11-20T14:21:29;99418.78;;;13.38;51.48
21988;BME280;11158;53.404;-1.510;2022-11-20T14:24:11;99417.19;;;13.30;51.23
21988;BME280;11158;53.404;-1.510;2022-11-20T14:26:41;99406.22;;;13.92;49.94
21988;BME280;11158;53.404;-1.510;2022-11-20T14:29:33;99408.91;;;13.92;50.35
21988;BME280;11158;53.404;-1.510;2022-11-20T14:32:02;99397.84;;;13.58;50.47
21988;BME280;11158;53.404;-1.510;2022-11-20T14:34:30;99407.44;;;13.36;51.03
21988;BME280;11158;53.404;-1.510;2022-11-20T14:37:03;99407.72;;;13.09;51.61
21988;BME280;11158;53.404;-1.510;2022-11-20T14:39:34;99404.75;;;13.36;52.26
21988;BME280;11158;53.404;-1.510;2022-11-20T14:42:02;99401.41;;;13.82;50.17
21988;BME280;11158;53.404;-1.510;2022-11-20T14:44:35;99405.19;;;13.93;49.73
21988;BME280;11158;53.404;-1.510;2022-11-20T14:47:03;99403.94;;;14.31;49.02
21988;BME280;11158;53.404;-1.510;2022-11-20T14:49:30;99406.97;;;14.46;48.54
21988;BME280;11158;53.404;-1.510;2022-11-20T14:52:02;99406.75;;;14.36;48.50
21988;BME280;11158;53.404;-1.510;2022-11-20T14:54:29;99403.88;;;13.84;49.48
21988;BME280;11158;53.404;-1.510;2022-11-20T14:57:01;99406.44;;;13.79;50.59